Time;durP1;ratioP1;P1;durP2;ratioP2;P2;SDS_P1;SDS_P2;PMS_P1;PMS_P2;Temp;Humidity;BMP_temperature;BMP_pressure;BME280_temperature;BME280_humidity;BME280_pressure;Samples;Min_cycle;Max_cycle;Signal;HPM_P1;HPM_P2
2021/07/16 00:02:22;;;;;;;6.10;4.38;;;23.60;71.50;;;;;;4930020;28;93131;-20
2021/07/16 00:04:48;;;;;;;6.88;4.63;;;23.50;71.50;;;;;;4930346;28;93024;-33
2021/07/16 00:07:14;;;;;;;5.95;4.65;;;23.60;71.60;;;;;;4940712;28;94115;-19
2021/07/16 00:09:39;;;;;;;5.35;4.35;;;23.60;71.50;;;;;;4947954;28;93177;-20
2021/07/16 00:12:05;;;;;;;6.65;4.63;;;23.60;71.40;;;;;;4937378;28;93191;-30
2021/07/16 00:14:32;;;;;;;5.25;4.65;;;23.60;71.50;;;;;;4930241;28;95250;-23
2021/07/16 00:17:01;;;;;;;5.57;4.75;;;23.60;71.40;;;;;;4930660;28;92908;-21
2021/07/16 00:19:27;;;;;;;5.07;4.40;;;23.60;71.50;;;;;;4929064;28;93236;-34
2021/07/16 00:21:56;;;;;;;5.43;4.68;;;23.60;71.50;;;;;;4928824;28;92698;-29
2021/07/16 00:24:22;;;;;;;5.35;4.65;;;23.50;71.40;;;;;;4929978;28;94766;-19
2021/07/16 00:26:47;;;;;;;7.28;4.85;;;23.50;71.50;;;;;;4888283;28;1205902;-20
2021/07/16 00:29:13;;;;;;;5.82;4.70;;;23.60;71.50;;;;;;4931203;28;93187;-20
2021/07/16 00:31:39;;;;;;;6.28;4.60;;;23.60;71.40;;;;;;4928857;28;94738;-19
2021/07/16 00:34:05;;;;;;;6.00;4.63;;;23.50;71.40;;;;;;4941252;28;94577;-24
2021/07/16 00:36:31;;;;;;;5.20;4.47;;;23.50;71.30;;;;;;4950771;28;92986;-19
2021/07/16 00:38:57;;;;;;;6.25;4.72;;;23.50;71.30;;;;;;4950279;28;93211;-19
2021/07/16 00:41:23;;;;;;;4.85;4.25;;;23.50;71.30;;;;;;4939408;28;95994;-20
2021/07/16 00:43:49;;;;;;;5.63;5.00;;;23.50;71.30;;;;;;4930647;28;92645;-29
2021/07/16 00:46:14;;;;;;;5.20;4.32;;;23.60;71.40;;;;;;4931503;28;92843;-28
2021/07/16 00:48:40;;;;;;;4.78;4.07;;;23.50;71.30;;;;;;4950707;28;92191;-19
2021/07/16 00:51:06;;;;;;;5.22;4.22;;;23.50;71.30;;;;;;4949497;28;93096;-20
2021/07/16 00:53:31;;;;;;;4.88;4.07;;;23.50;71.30;;;;;;4950454;28;93090;-24
2021/07/16 00:55:57;;;;;;;5.40;4.50;;;23.50;71.20;;;;;;4949356;28;93098;-25
2021/07/16 00:58:23;;;;;;;4.95;4.30;;;23.50;71.20;;;;;;4949788;28;92958;-19
2021/07/16 01:00:48;;;;;;;5.97;4.25;;;23.50;71.30;;;;;;4947697;28;95109;-20
2021/07/16 01:03:15;;;;;;;5.13;4.15;;;23.50;71.30;;;;;;4949750;28;92886;-21
2021/07/16 01:05:42;;;;;;;6.75;5.22;;;23.50;71.30;;;;;;4950246;28;93054;-19
2021/07/16 01:08:08;;;;;;;4.97;4.28;;;23.50;71.40;;;;;;4949826;28;92779;-24
2021/07/16 01:10:34;;;;;;;7.95;4.43;;;23.50;71.40;;;;;;4949412;28;93340;-31
2021/07/16 01:13:00;;;;;;;4.68;4.25;;;23.50;71.40;;;;;;4950299;28;92968;-19
2021/07/16 01:15:30;;;;;;;8.80;5.57;;;23.50;71.40;;;;;;4950123;28;93150;-25
2021/07/16 01:17:55;;;;;;;5.60;4.28;;;23.50;71.40;;;;;;4948790;28;92233;-26
2021/07/16 01:20:27;;;;;;;5.20;4.18;;;23.50;71.30;;;;;;4947306;28;94088;-20
2021/07/16 01:22:54;;;;;;;4.72;4.03;;;23.40;71.30;;;;;;4941978;28;93871;-19
2021/07/16 01:25:25;;;;;;;4.85;3.97;;;23.50;71.40;;;;;;4929455;28;92787;-20
2021/07/16 01:27:53;;;;;;;6.40;5.05;;;23.50;71.40;;;;;;4928354;28;92896;-20
2021/07/16 01:30:22;;;;;;;4.88;4.35;;;23.40;71.40;;;;;;4947799;28;93371;-29
2021/07/16 01:32:49;;;;;;;4.65;4.15;;;23.40;71.40;;;;;;4949337;28;93310;-24
2021/07/16 01:35:16;;;;;;;5.82;4.45;;;23.40;71.40;;;;;;4948784;28;92328;-30
2021/07/16 01:37:42;;;;;;;6.25;4.25;;;23.50;71.50;;;;;;4941673;28;92057;-21
2021/07/16 01:40:13;;;;;;;6.15;4.55;;;23.40;71.40;;;;;;4929723;28;93097;-19
2021/07/16 01:42:48;;;;;;;5.50;4.03;;;23.50;71.40;;;;;;4929858;28;92997;-26
2021/07/16 01:45:17;;;;;;;5.00;4.00;;;23.40;71.40;;;;;;4929897;28;94910;-20
2021/07/16 01:47:54;;;;;;;5.30;4.60;;;23.40;71.40;;;;;;4930558;28;93020;-19
2021/07/16 01:50:20;;;;;;;5.05;4.40;;;23.40;71.40;;;;;;4935164;28;93541;-19
2021/07/16 01:52:47;;;;;;;5.18;4.05;;;23.40;71.40;;;;;;4949072;28;93128;-22
2021/07/16 01:55:15;;;;;;;5.10;4.28;;;23.40;71.30;;;;;;4950299;28;93249;-28
2021/07/16 01:58:04;;;;;;;5.03;4.50;;;23.40;71.30;;;;;;4949501;28;93036;-21
2021/07/16 02:00:38;;;;;;;6.13;4.20;;;23.40;71.40;;;;;;4948223;28;93212;-25
2021/07/16 02:03:09;;;;;;;5.70;4.18;;;23.40;71.30;;;;;;4949358;28;92470;-26
2021/07/16 02:05:37;;;;;;;5.68;4.50;;;23.40;71.30;;;;;;4949338;28;93237;-29
2021/07/16 02:08:21;;;;;;;6.10;4.60;;;23.40;71.30;;;;;;4949495;28;92865;-19
2021/07/16 02:10:50;;;;;;;6.32;4.07;;;23.40;71.30;;;;;;4947442;28;94155;-27
2021/07/16 02:13:17;;;;;;;5.43;4.50;;;23.40;71.20;;;;;;4948512;28;93252;-30
2021/07/16 02:15:45;;;;;;;6.15;4.65;;;23.40;71.20;;;;;;4949255;28;93109;-32
2021/07/16 02:18:12;;;;;;;4.88;4.28;;;23.40;71.20;;;;;;4946909;28;92890;-23
2021/07/16 02:20:40;;;;;;;4.80;4.00;;;23.40;71.20;;;;;;4947613;28;93261;-19
2021/07/16 02:23:17;;;;;;;4.78;3.97;;;23.40;71.20;;;;;;4948105;28;93571;-22
2021/07/16 02:25:43;;;;;;;4.95;4.10;;;23.40;71.10;;;;;;4948882;28;92189;-19
2021/07/16 02:28:19;;;;;;;5.80;4.60;;;23.40;71.20;;;;;;4948930;28;92458;-20
2021/07/16 02:30:45;;;;;;;5.43;4.45;;;23.40;71.20;;;;;;4947915;28;92930;-22
2021/07/16 02:33:10;;;;;;;4.97;4.10;;;23.40;71.10;;;;;;4950452;28;93052;-22
2021/07/16 02:35:36;;;;;;;5.57;4.07;;;23.40;71.10;;;;;;4952073;28;93170;-25
2021/07/16 02:38:04;;;;;;;5.97;4.45;;;23.40;71.20;;;;;;4952396;28;92166;-23
2021/07/16 02:40:32;;;;;;;5.80;4.28;;;23.40;71.20;;;;;;4938949;28;93209;-20
2021/07/16 02:42:58;;;;;;;4.72;4.22;;;23.40;71.10;;;;;;4932600;28;92957;-34
2021/07/16 02:45:24;;;;;;;6.28;4.30;;;23.40;71.20;;;;;;4933105;28;93214;-21
2021/07/16 02:47:51;;;;;;;5.15;4.65;;;23.40;71.20;;;;;;4932584;28;92993;-19
2021/07/16 02:50:32;;;;;;;4.43;4.03;;;23.40;71.20;;;;;;4931197;28;93102;-24
2021/07/16 02:52:58;;;;;;;5.15;3.88;;;23.40;71.20;;;;;;4933521;28;92518;-27
2021/07/16 02:55:24;;;;;;;5.65;4.93;;;23.40;71.20;;;;;;4951540;28;92360;-26
2021/07/16 02:57:50;;;;;;;5.68;4.50;;;23.40;71.20;;;;;;4950363;28;92884;-21
2021/07/16 03:00:22;;;;;;;5.22;4.03;;;23.40;71.20;;;;;;4951352;28;93132;-22
2021/07/16 03:02:49;;;;;;;4.75;3.92;;;23.40;71.20;;;;;;4951256;28;94492;-19
2021/07/16 03:05:18;;;;;;;4.78;4.28;;;23.30;71.20;;;;;;4952226;28;93108;-29
2021/07/16 03:07:45;;;;;;;5.35;4.68;;;23.30;71.10;;;;;;4952136;28;92287;-37
2021/07/16 03:10:25;;;;;;;5.13;4.63;;;23.40;71.20;;;;;;4951846;28;93115;-19
2021/07/16 03:12:53;;;;;;;4.70;4.22;;;23.40;71.20;;;;;;4951707;28;92484;-29
2021/07/16 03:15:23;;;;;;;5.70;4.28;;;23.30;71.10;;;;;;4948241;28;92887;-19
2021/07/16 03:17:49;;;;;;;5.05;4.18;;;23.30;71.10;;;;;;4932965;28;92679;-19
2021/07/16 03:20:20;;;;;;;5.32;4.63;;;23.30;71.10;;;;;;4938980;28;93926;-20
2021/07/16 03:22:46;;;;;;;4.60;4.07;;;23.30;71.10;;;;;;4935335;28;92897;-23
2021/07/16 03:25:14;;;;;;;4.80;4.40;;;23.30;71.10;;;;;;4932227;28;93985;-34
2021/07/16 03:27:41;;;;;;;4.35;3.90;;;23.30;71.10;;;;;;4931946;28;93438;-23
2021/07/16 03:30:10;;;;;;;5.13;4.45;;;23.30;71.10;;;;;;4931929;28;93165;-22
2021/07/16 03:32:36;;;;;;;5.05;4.10;;;23.30;71.10;;;;;;4931488;28;95010;-30
2021/07/16 03:35:03;;;;;;;4.75;4.03;;;23.30;71.10;;;;;;4932073;28;93288;-22
2021/07/16 03:37:28;;;;;;;5.25;4.53;;;23.30;71.10;;;;;;4933691;28;93704;-21
2021/07/16 03:39:54;;;;;;;4.88;4.38;;;23.30;71.10;;;;;;4951361;28;92768;-23
2021/07/16 03:42:20;;;;;;;4.63;4.20;;;23.30;71.20;;;;;;4951260;28;92719;-19
2021/07/16 03:44:46;;;;;;;4.82;4.28;;;23.30;71.20;;;;;;4951024;28;92153;-22
2021/07/16 03:47:13;;;;;;;5.28;4.15;;;23.30;71.20;;;;;;4951032;28;92846;-24
2021/07/16 03:49:39;;;;;;;4.97;4.30;;;23.20;71.20;;;;;;4936983;28;97631;-24
2021/07/16 03:52:05;;;;;;;4.55;4.13;;;23.20;71.20;;;;;;4930933;28;93778;-20
2021/07/16 03:54:31;;;;;;;4.55;4.07;;;23.20;71.20;;;;;;4932040;28;92165;-27
2021/07/16 03:56:59;;;;;;;5.35;3.72;;;23.20;71.30;;;;;;4930955;28;92647;-21
2021/07/16 03:59:24;;;;;;;4.68;4.18;;;23.20;71.20;;;;;;4931126;28;93232;-23
2021/07/16 04:01:50;;;;;;;5.00;4.50;;;23.20;71.20;;;;;;4943073;28;92960;-36
2021/07/16 04:04:16;;;;;;;6.03;4.30;;;23.20;71.30;;;;;;4950612;28;92457;-19
2021/07/16 04:06:49;;;;;;;4.65;4.20;;;23.20;71.30;;;;;;4951519;28;92482;-19
2021/07/16 04:09:27;;;;;;;5.20;4.60;;;23.20;71.30;;;;;;4950609;28;92275;-19
2021/07/16 04:12:12;;;;;;;4.40;4.00;;;23.20;71.30;;;;;;4950371;28;92900;-19
2021/07/16 04:14:46;;;;;;;4.80;4.30;;;23.20;71.30;;;;;;4937616;28;93941;-26
2021/07/16 04:17:14;;;;;;;4.68;4.13;;;23.20;71.30;;;;;;4931683;28;93458;-19
2021/07/16 04:19:41;;;;;;;5.00;4.50;;;23.20;71.30;;;;;;4930876;28;94788;-22
2021/07/16 04:22:08;;;;;;;4.78;4.28;;;23.20;71.30;;;;;;4929603;28;92946;-19
2021/07/16 04:24:43;;;;;;;5.78;4.40;;;23.20;71.30;;;;;;4930933;28;93133;-27
2021/07/16 04:27:10;;;;;;;4.43;3.70;;;23.20;71.30;;;;;;4930138;28;92690;-19
2021/07/16 04:29:37;;;;;;;5.63;4.18;;;23.20;71.30;;;;;;4928013;28;95691;-19
2021/07/16 04:32:05;;;;;;;4.10;3.70;;;23.20;71.20;;;;;;4935079;28;92479;-30
2021/07/16 04:34:32;;;;;;;6.47;4.60;;;23.20;71.20;;;;;;4930303;28;93128;-37
2021/07/16 04:36:58;;;;;;;4.57;4.18;;;23.20;71.20;;;;;;4930120;28;92326;-24
2021/07/16 04:39:24;;;;;;;4.75;4.13;;;23.20;71.20;;;;;;4930150;28;93697;-33
2021/07/16 04:41:50;;;;;;;4.78;4.15;;;23.20;71.20;;;;;;4930852;28;93931;-19
2021/07/16 04:44:16;;;;;;;4.57;4.13;;;23.10;71.20;;;;;;4931004;28;93592;-25
2021/07/16 04:46:41;;;;;;;5.22;4.40;;;23.10;71.20;;;;;;4947680;28;92380;-23
2021/07/16 04:49:07;;;;;;;4.70;4.20;;;23.10;71.20;;;;;;4930308;28;93166;-19
2021/07/16 04:51:34;;;;;;;4.53;3.95;;;23.20;71.30;;;;;;4930935;28;92827;-26
2021/07/16 04:54:01;;;;;;;4.30;3.90;;;23.10;71.20;;;;;;4931263;28;93760;-19
2021/07/16 04:56:28;;;;;;;4.32;3.40;;;23.20;71.30;;;;;;4930591;28;91444;-21
2021/07/16 04:58:54;;;;;;;4.85;4.13;;;23.10;71.20;;;;;;4930362;28;94062;-20
2021/07/16 05:01:23;;;;;;;5.10;3.92;;;23.10;71.30;;;;;;4932472;28;93174;-34
2021/07/16 05:03:49;;;;;;;4.80;3.95;;;23.10;71.30;;;;;;4949220;28;93789;-21
2021/07/16 05:06:17;;;;;;;4.30;3.90;;;23.10;71.30;;;;;;4949413;28;92749;-22
2021/07/16 05:08:42;;;;;;;4.53;4.13;;;23.10;71.30;;;;;;4949122;28;93577;-19
2021/07/16 05:11:09;;;;;;;4.18;3.78;;;23.10;71.30;;;;;;4949428;28;92463;-24
2021/07/16 05:13:36;;;;;;;4.30;3.90;;;23.10;71.30;;;;;;4949351;28;92220;-32
2021/07/16 05:16:07;;;;;;;4.45;4.05;;;23.10;71.30;;;;;;4949367;28;93456;-20
2021/07/16 05:18:33;;;;;;;5.03;4.25;;;23.10;71.30;;;;;;4948956;28;93229;-25
2021/07/16 05:21:00;;;;;;;4.32;3.88;;;23.10;71.30;;;;;;4938866;28;93043;-30
2021/07/16 05:23:27;;;;;;;4.63;4.18;;;23.10;71.30;;;;;;4929846;28;93339;-19
2021/07/16 05:25:53;;;;;;;4.70;4.28;;;23.10;71.30;;;;;;4929133;28;92444;-25
2021/07/16 05:28:19;;;;;;;4.45;3.95;;;23.10;71.30;;;;;;4946638;28;94183;-33
2021/07/16 05:30:44;;;;;;;4.72;4.03;;;23.10;71.30;;;;;;4944392;28;93203;-20
2021/07/16 05:33:10;;;;;;;4.40;4.00;;;23.10;71.30;;;;;;4948450;28;92753;-27
2021/07/16 05:35:36;;;;;;;5.07;4.03;;;23.10;71.30;;;;;;4949281;28;93650;-22
2021/07/16 05:38:02;;;;;;;4.28;3.85;;;23.10;71.30;;;;;;4949265;28;92882;-19
2021/07/16 05:40:28;;;;;;;4.00;3.50;;;23.10;71.30;;;;;;4931733;28;92506;-32
2021/07/16 05:42:53;;;;;;;4.53;4.13;;;23.10;71.20;;;;;;4942036;28;93179;-23
2021/07/16 05:45:19;;;;;;;4.50;4.10;;;23.10;71.20;;;;;;4949914;28;92412;-35
2021/07/16 05:47:45;;;;;;;4.47;3.75;;;23.10;71.20;;;;;;4949887;28;92712;-20
2021/07/16 05:50:12;;;;;;;4.75;4.30;;;23.10;71.20;;;;;;4935519;28;95296;-25
2021/07/16 05:52:37;;;;;;;4.43;3.80;;;23.10;71.20;;;;;;4936462;28;93639;-29
2021/07/16 05:55:06;;;;;;;4.13;3.72;;;23.10;71.20;;;;;;4949735;28;92169;-23
2021/07/16 05:57:32;;;;;;;4.45;4.00;;;23.10;71.40;;;;;;4937829;28;93148;-22
2021/07/16 05:59:58;;;;;;;5.63;4.45;;;23.10;71.20;;;;;;4930039;28;92987;-20
2021/07/16 06:02:24;;;;;;;4.40;4.00;;;23.10;71.20;;;;;;4930619;28;92945;-20
2021/07/16 06:04:50;;;;;;;4.38;3.97;;;23.10;71.20;;;;;;4930607;28;93429;-19
2021/07/16 06:07:15;;;;;;;4.88;4.00;;;23.00;71.10;;;;;;4930374;28;92198;-25
2021/07/16 06:09:41;;;;;;;10.20;4.13;;;23.10;71.20;;;;;;4940584;28;95922;-28
2021/07/16 06:12:07;;;;;;;3.90;3.50;;;23.10;71.20;;;;;;4942523;28;93147;-31
2021/07/16 06:14:33;;;;;;;4.72;4.07;;;23.10;71.30;;;;;;4929975;28;92987;-20
2021/07/16 06:16:59;;;;;;;5.07;3.78;;;23.10;71.20;;;;;;4930797;28;94294;-23
2021/07/16 06:19:25;;;;;;;4.20;3.80;;;23.10;71.30;;;;;;4941443;28;93474;-19
2021/07/16 06:21:51;;;;;;;5.10;4.18;;;23.10;71.30;;;;;;4929130;28;93386;-30
2021/07/16 06:24:17;;;;;;;5.35;3.92;;;23.00;71.40;;;;;;4930015;28;92558;-24
2021/07/16 06:26:43;;;;;;;7.35;4.50;;;23.00;71.40;;;;;;4941281;28;93760;-21
2021/07/16 06:29:08;;;;;;;8.00;5.00;;;23.10;71.40;;;;;;4948378;28;92837;-29
2021/07/16 06:31:34;;;;;;;9.07;5.38;;;23.10;71.60;;;;;;4939681;28;93490;-19
2021/07/16 06:34:01;;;;;;;8.07;5.47;;;23.10;71.30;;;;;;4929889;28;92123;-19
2021/07/16 06:36:28;;;;;;;7.55;5.10;;;23.10;71.50;;;;;;4928985;28;95643;-22
2021/07/16 06:38:53;;;;;;;7.15;5.15;;;23.10;71.70;;;;;;4933078;28;92991;-19
2021/07/16 06:41:19;;;;;;;14.80;5.30;;;23.10;71.80;;;;;;4936811;28;94184;-21
2021/07/16 06:43:45;;;;;;;7.85;5.53;;;23.10;71.80;;;;;;4932887;28;92206;-28
2021/07/16 06:46:12;;;;;;;13.88;5.15;;;23.10;71.80;;;;;;4946830;28;93071;-26
2021/07/16 06:48:42;;;;;;;11.00;5.47;;;23.10;71.90;;;;;;4947354;28;92862;-20
2021/07/16 06:51:11;;;;;;;10.68;5.55;;;23.00;71.90;;;;;;4948136;28;93037;-19
2021/07/16 06:53:37;;;;;;;12.05;5.90;;;23.00;72.00;;;;;;4930729;28;93314;-34
2021/07/16 06:56:03;;;;;;;7.88;4.80;;;23.00;72.10;;;;;;4928849;28;94242;-18
2021/07/16 06:58:29;;;;;;;8.45;5.95;;;23.00;72.20;;;;;;4947038;28;92444;-23
2021/07/16 07:00:55;;;;;;;10.23;5.57;;;23.00;72.30;;;;;;4919933;28;92767;-18
2021/07/16 07:03:25;;;;;;;9.20;5.78;;;23.00;72.30;;;;;;4935358;28;92949;-24
2021/07/16 07:05:52;;;;;;;8.18;5.95;;;23.00;72.30;;;;;;4927241;28;94195;-23
2021/07/16 07:08:17;;;;;;;9.52;5.78;;;23.00;72.30;;;;;;4940124;28;94370;-23
2021/07/16 07:10:45;;;;;;;6.68;5.65;;;23.00;72.30;;;;;;4947033;28;92663;-19
2021/07/16 07:13:11;;;;;;;7.97;6.28;;;23.00;72.30;;;;;;4946876;28;93275;-19
2021/07/16 07:15:36;;;;;;;9.50;5.35;;;23.00;72.40;;;;;;4935124;28;93475;-20
2021/07/16 07:18:07;;;;;;;6.18;5.00;;;23.00;72.30;;;;;;4929515;28;93150;-20
2021/07/16 07:20:33;;;;;;;7.90;5.35;;;23.00;72.40;;;;;;4931297;28;92463;-18
2021/07/16 07:23:00;;;;;;;7.40;5.65;;;23.10;72.30;;;;;;4931215;28;91496;-20
2021/07/16 07:25:26;;;;;;;7.80;5.22;;;23.10;72.20;;;;;;4938664;28;92663;-25
2021/07/16 07:27:52;;;;;;;10.05;6.32;;;23.10;72.20;;;;;;4951362;28;93384;-22
2021/07/16 07:30:19;;;;;;;10.65;5.75;;;23.10;72.10;;;;;;4950657;28;93626;-18
2021/07/16 07:32:45;;;;;;;8.45;5.40;;;23.10;72.10;;;;;;4935245;28;92354;-18
2021/07/16 07:35:12;;;;;;;10.05;5.90;;;23.10;72.20;;;;;;4942971;28;93273;-23
2021/07/16 07:37:38;;;;;;;7.90;5.80;;;23.10;72.20;;;;;;4931297;28;94003;-25
2021/07/16 07:40:06;;;;;;;8.52;5.53;;;23.10;72.20;;;;;;4933077;28;93003;-19
2021/07/16 07:42:32;;;;;;;27.17;8.60;;;23.20;72.20;;;;;;4929874;28;92978;-19
2021/07/16 07:44:57;;;;;;;31.88;8.45;;;23.10;71.90;;;;;;4930857;28;94709;-27
2021/07/16 07:47:23;;;;;;;28.73;10.77;;;23.10;71.90;;;;;;4931268;28;92919;-22
2021/07/16 07:49:49;;;;;;;28.58;10.73;;;23.10;71.80;;;;;;4930848;28;93249;-33
2021/07/16 07:52:16;;;;;;;30.75;10.68;;;23.10;71.80;;;;;;4944792;28;92859;-19
2021/07/16 07:54:42;;;;;;;24.88;10.48;;;23.20;71.90;;;;;;4945432;28;94193;-25
2021/07/16 07:57:08;;;;;;;20.88;10.50;;;23.10;71.90;;;;;;4929736;28;95019;-34
2021/07/16 07:59:35;;;;;;;27.05;10.40;;;23.20;71.90;;;;;;4944606;28;92734;-22
2021/07/16 08:02:01;;;;;;;33.70;10.95;;;23.20;71.90;;;;;;4949101;28;93522;-31
2021/07/16 08:04:27;;;;;;;24.45;10.05;;;23.20;71.30;;;;;;4949429;28;93237;-25
2021/07/16 08:06:52;;;;;;;29.00;10.02;;;23.20;70.50;;;;;;4949344;28;92996;-25
2021/07/16 08:09:18;;;;;;;34.67;9.60;;;23.20;69.70;;;;;;4939187;28;93703;-27
2021/07/16 08:11:44;;;;;;;28.60;9.95;;;23.20;69.80;;;;;;4932612;28;92074;-28
2021/07/16 08:14:09;;;;;;;30.63;9.80;;;23.20;69.70;;;;;;4937340;28;94257;-29
2021/07/16 08:16:35;;;;;;;33.47;9.75;;;23.20;69.80;;;;;;4930261;28;92357;-21
2021/07/16 08:19:01;;;;;;;27.30;9.45;;;23.20;69.80;;;;;;4930840;28;94239;-21
2021/07/16 08:21:26;;;;;;;34.10;9.23;;;23.10;69.50;;;;;;4929570;28;93425;-24
2021/07/16 08:23:52;;;;;;;26.77;9.13;;;23.20;69.50;;;;;;4931162;28;93287;-24
2021/07/16 08:26:19;;;;;;;30.17;8.65;;;23.10;69.20;;;;;;4930413;28;93717;-22
2021/07/16 08:28:45;;;;;;;23.13;8.55;;;23.10;69.40;;;;;;4930054;28;92707;-21
2021/07/16 08:31:11;;;;;;;23.40;8.40;;;23.10;69.20;;;;;;4929876;28;92938;-21
2021/07/16 08:33:37;;;;;;;29.58;9.52;;;23.20;69.10;;;;;;4931812;28;93927;-23
2021/07/16 08:36:03;;;;;;;28.38;10.00;;;23.10;68.80;;;;;;4931815;28;92901;-21
2021/07/16 08:38:29;;;;;;;24.67;8.63;;;23.10;69.70;;;;;;4949369;28;93131;-32
2021/07/16 08:40:54;;;;;;;29.38;8.73;;;23.10;68.90;;;;;;4949982;28;93401;-24
2021/07/16 08:43:23;;;;;;;27.88;9.25;;;23.10;68.80;;;;;;4939954;28;95138;-27
2021/07/16 08:45:51;;;;;;;30.17;9.75;;;23.20;69.30;;;;;;4930324;28;95580;-30
2021/07/16 08:48:16;;;;;;;25.88;8.55;;;23.20;69.80;;;;;;4931523;28;93037;-23
2021/07/16 08:50:42;;;;;;;26.80;9.35;;;23.10;69.30;;;;;;4930407;28;93174;-19
2021/07/16 08:53:09;;;;;;;25.45;8.98;;;23.20;69.10;;;;;;4929839;28;94672;-20
2021/07/16 08:55:36;;;;;;;35.25;9.00;;;23.20;69.40;;;;;;4928979;28;94291;-19
2021/07/16 08:58:05;;;;;;;23.55;7.53;;;23.10;68.80;;;;;;4930500;28;93218;-30
2021/07/16 09:00:31;;;;;;;24.83;7.35;;;23.10;68.60;;;;;;4930345;28;92567;-19
2021/07/16 09:02:59;;;;;;;21.40;7.43;;;23.20;68.80;;;;;;4931370;28;93103;-26
2021/07/16 09:05:37;;;;;;;18.50;7.18;;;23.20;68.50;;;;;;4949573;28;92668;-19
2021/07/16 09:08:04;;;;;;;26.70;8.15;;;23.20;68.30;;;;;;4948812;28;93821;-20
2021/07/16 09:10:30;;;;;;;22.30;6.85;;;23.20;68.10;;;;;;4949019;28;92787;-22
2021/07/16 09:12:58;;;;;;;21.17;7.05;;;23.10;68.00;;;;;;4949750;28;94128;-19
2021/07/16 09:15:24;;;;;;;18.45;6.78;;;23.10;68.20;;;;;;4949897;28;93640;-19
2021/07/16 09:17:53;;;;;;;20.80;6.93;;;23.10;67.80;;;;;;4948993;28;93233;-23
2021/07/16 09:20:26;;;;;;;20.05;6.88;;;23.20;67.70;;;;;;4949585;28;92881;-27
2021/07/16 09:23:34;;;;;;;14.27;6.55;;;23.20;67.60;;;;;;4949351;28;95494;-23
2021/07/16 09:26:13;;;;;;;15.50;6.75;;;23.10;67.90;;;;;;4907367;28;96568;-20
2021/07/16 09:28:41;;;;;;;24.13;6.57;;;23.20;67.90;;;;;;4959372;28;92830;-22
2021/07/16 09:31:09;;;;;;;19.10;7.15;;;23.10;67.90;;;;;;4948419;28;92918;-25
2021/07/16 09:33:50;;;;;;;19.60;7.03;;;23.10;67.70;;;;;;4948330;28;94106;-21
2021/07/16 09:36:42;;;;;;;19.63;7.40;;;23.20;67.60;;;;;;4948826;28;96832;-19
2021/07/16 09:39:10;;;;;;;18.95;6.43;;;23.20;68.10;;;;;;4945243;28;92273;-25
2021/07/16 09:41:51;;;;;;;21.88;7.55;;;23.10;68.20;;;;;;4949289;28;92250;-21
2021/07/16 09:44:26;;;;;;;18.00;6.20;;;23.20;68.40;;;;;;4949138;28;95143;-20
2021/07/16 09:47:18;;;;;;;13.63;5.20;;;23.20;68.20;;;;;;4948476;28;94276;-19
2021/07/16 09:50:02;;;;;;;14.02;5.18;;;23.20;67.80;;;;;;4934405;28;92625;-23
2021/07/16 09:52:28;;;;;;;13.25;4.70;;;23.20;67.90;;;;;;4929534;28;92850;-19
2021/07/16 09:55:09;;;;;;;17.27;5.68;;;23.20;67.20;;;;;;4934444;28;93378;-21
2021/07/16 09:57:39;;;;;;;16.23;5.60;;;23.30;67.60;;;;;;4948972;28;93015;-27
2021/07/16 10:00:12;;;;;;;18.88;5.60;;;23.20;67.30;;;;;;4949202;28;93246;-25
2021/07/16 10:02:38;;;;;;;12.45;5.07;;;23.20;67.30;;;;;;4948797;28;92756;-25
2021/07/16 10:05:06;;;;;;;17.95;5.72;;;23.20;67.10;;;;;;4948670;28;93325;-23
2021/07/16 10:07:32;;;;;;;18.40;5.22;;;23.20;67.00;;;;;;4948934;28;93049;-18
2021/07/16 10:09:58;;;;;;;21.17;5.63;;;23.10;66.50;;;;;;4946814;28;92208;-23
2021/07/16 10:12:24;;;;;;;14.32;4.95;;;23.10;66.40;;;;;;4936482;28;92296;-18
2021/07/16 10:14:50;;;;;;;16.85;5.05;;;23.20;66.40;;;;;;4935617;28;93071;-20
2021/07/16 10:17:15;;;;;;;14.93;4.65;;;23.10;66.50;;;;;;4929511;28;92995;-21
2021/07/16 10:19:41;;;;;;;17.48;4.90;;;23.10;66.20;;;;;;4928864;28;92812;-18
2021/07/16 10:22:07;;;;;;;11.90;4.35;;;23.10;66.10;;;;;;4928947;28;92193;-19
2021/07/16 10:24:36;;;;;;;21.40;5.63;;;23.10;66.10;;;;;;4928031;28;93817;-26
2021/07/16 10:27:07;;;;;;;16.80;4.68;;;23.10;66.00;;;;;;4927895;28;93862;-19
2021/07/16 10:29:39;;;;;;;15.98;4.55;;;23.10;65.80;;;;;;4928788;28;92521;-21
2021/07/16 10:32:06;;;;;;;14.13;4.20;;;23.10;66.00;;;;;;4928966;28;93636;-20
2021/07/16 10:34:34;;;;;;;12.00;4.45;;;23.10;65.60;;;;;;4945192;28;93505;-22
2021/07/16 10:37:15;;;;;;;15.07;3.75;;;23.10;65.50;;;;;;4948504;28;93294;-18
2021/07/16 10:39:52;;;;;;;17.80;4.88;;;23.20;65.90;;;;;;4948701;28;93069;-18
2021/07/16 10:42:39;;;;;;;14.13;4.45;;;23.10;65.70;;;;;;4929122;28;91940;-21
2021/07/16 10:45:08;;;;;;;16.23;4.93;;;23.10;65.60;;;;;;4928697;28;93153;-22
2021/07/16 10:47:36;;;;;;;14.68;4.32;;;23.10;65.20;;;;;;4928393;28;92941;-19
2021/07/16 10:50:08;;;;;;;14.30;3.97;;;23.10;65.10;;;;;;4964872;22;94007;-23
2021/07/16 10:53:02;;;;;;;20.85;5.07;;;23.10;66.50;;;;;;4928346;28;92895;-27
2021/07/16 10:55:31;;;;;;;19.63;4.70;;;23.10;67.00;;;;;;4926526;28;93261;-15
2021/07/16 10:57:56;;;;;;;19.42;4.75;;;23.10;66.90;;;;;;4931228;28;94424;-18
2021/07/16 11:00:37;;;;;;;16.20;4.78;;;23.10;66.80;;;;;;4931231;28;92577;-20
2021/07/16 11:03:13;;;;;;;17.80;4.97;;;23.10;66.90;;;;;;4931523;28;93046;-13
2021/07/16 11:05:39;;;;;;;14.05;4.80;;;23.20;66.80;;;;;;4931119;28;93392;-14
2021/07/16 11:08:43;;;;;;;14.80;5.07;;;23.20;66.80;;;;;;4931788;28;93012;-23
2021/07/16 11:11:16;;;;;;;20.67;4.40;;;23.10;66.90;;;;;;4851989;28;92585;-14
2021/07/16 11:13:53;;;;;;;16.55;4.68;;;23.20;66.80;;;;;;4917505;28;93509;-17
2021/07/16 11:16:25;;;;;;;15.80;5.30;;;23.10;66.30;;;;;;4930794;28;94196;-25
2021/07/16 11:19:18;;;;;;;23.05;4.55;;;23.10;65.80;;;;;;4931870;28;93946;-18
2021/07/16 11:21:46;;;;;;;18.50;4.57;;;23.10;65.30;;;;;;4922911;28;93208;-12
2021/07/16 11:26:55;;;;;;;13.48;4.13;;;23.10;65.00;;;;;;4930840;28;93132;-16
2021/07/16 11:29:30;;;;;;;20.15;4.68;;;23.10;65.10;;;;;;4932206;28;93525;-21
2021/07/16 11:32:19;;;;;;;19.48;5.13;;;23.10;65.00;;;;;;4931898;28;92889;-13
2021/07/16 11:35:01;;;;;;;16.63;4.50;;;23.10;64.70;;;;;;4932168;28;92386;-12
2021/07/16 11:37:36;;;;;;;22.85;4.65;;;23.10;64.80;;;;;;4931010;28;92864;-33
2021/07/16 11:40:15;;;;;;;20.13;5.00;;;23.10;64.80;;;;;;4930642;28;93373;-16
2021/07/16 11:42:48;;;;;;;21.50;5.38;;;23.10;64.90;;;;;;4929698;28;94189;-21
2021/07/16 11:45:26;;;;;;;22.85;5.43;;;23.10;65.00;;;;;;4930554;28;93305;-17
2021/07/16 11:47:53;;;;;;;22.50;5.32;;;23.10;65.40;;;;;;4930622;28;93324;-13
2021/07/16 11:50:19;;;;;;;18.80;5.60;;;23.10;65.30;;;;;;4930522;28;92816;-18
2021/07/16 11:52:48;;;;;;;23.33;5.78;;;23.10;65.60;;;;;;4930849;28;92340;-24
2021/07/16 11:55:29;;;;;;;19.85;5.90;;;23.10;66.10;;;;;;4931018;28;92241;-27
2021/07/16 11:58:02;;;;;;;22.67;5.65;;;23.10;66.20;;;;;;4931452;28;92856;-23
2021/07/16 12:00:39;;;;;;;21.63;5.25;;;23.10;66.20;;;;;;4931901;28;92942;-17
2021/07/16 12:03:06;;;;;;;21.65;4.93;;;23.20;66.50;;;;;;4931029;28;92835;-12
2021/07/16 12:05:44;;;;;;;25.77;5.22;;;23.20;65.70;;;;;;4931579;28;93201;-32
2021/07/16 12:08:10;;;;;;;26.15;5.60;;;23.20;65.80;;;;;;4930905;28;94275;-12
2021/07/16 12:10:38;;;;;;;20.55;5.32;;;23.20;67.60;;;;;;4931114;28;94342;-19
2021/07/16 12:13:04;;;;;;;21.50;5.50;;;23.20;69.00;;;;;;4930896;28;92744;-13
2021/07/16 12:15:29;;;;;;;20.33;6.43;;;23.20;70.70;;;;;;4930889;28;92384;-28
2021/07/16 12:17:56;;;;;;;19.85;4.93;;;23.20;71.90;;;;;;4930182;28;92965;-27
2021/07/16 12:20:32;;;;;;;25.42;5.65;;;23.20;71.50;;;;;;4930144;28;93534;-27
2021/07/16 12:22:59;;;;;;;22.77;5.57;;;23.20;71.60;;;;;;4930770;28;92511;-11
2021/07/16 12:25:25;;;;;;;18.50;5.25;;;23.20;70.20;;;;;;4931224;28;92062;-28
2021/07/16 12:28:15;;;;;;;22.10;6.13;;;23.20;70.50;;;;;;4930961;28;93191;-28
2021/07/16 12:30:42;;;;;;;18.48;5.10;;;23.20;71.00;;;;;;4930705;28;93187;-13
2021/07/16 12:33:08;;;;;;;15.45;4.60;;;23.10;70.40;;;;;;4930258;28;93628;-14
2021/07/16 12:35:44;;;;;;;20.67;5.22;;;23.20;69.70;;;;;;4931278;28;92344;-14
2021/07/16 12:38:15;;;;;;;21.80;5.57;;;23.10;68.50;;;;;;4930898;28;93100;-29
2021/07/16 12:40:49;;;;;;;19.77;5.55;;;23.10;67.40;;;;;;4930813;28;93038;-24
2021/07/16 12:43:19;;;;;;;27.90;5.47;;;23.10;67.90;;;;;;4931094;28;92901;-14
2021/07/16 12:45:52;;;;;;;23.77;5.93;;;23.00;68.20;;;;;;4931507;28;93260;-12
2021/07/16 12:48:27;;;;;;;15.32;4.75;;;23.00;68.20;;;;;;4930812;28;93283;-32
2021/07/16 12:50:54;;;;;;;18.52;4.78;;;23.00;67.60;;;;;;4930409;28;92953;-13
2021/07/16 12:53:33;;;;;;;17.85;5.03;;;23.00;67.20;;;;;;4930498;28;92652;-11
2021/07/16 12:56:12;;;;;;;18.83;4.47;;;23.00;67.30;;;;;;4930623;28;92655;-14